Tempestade tropical WANDA 2021: trajetória, intensidade e histórico
8/11/2021, 00:00:00
25/10/2021, 18:00:00 – 8/11/2021, 00:00:00
Trajetória histórica
Acompanhe a evolução e o deslocamento de Tempestade tropical WANDA em 2021, com a trajetória completa registrada, ventos máximos sustentados de 60 nós, pressão central mínima e cronologia detalhada.
| Data | Hora | Tipo | Ventokm/h | PressãohPa |
|---|---|---|---|---|
| 08/11 | 00:00 | RBaixa remanescente | 75 | 1006 |
| 07/11 | 21:00 | RBaixa remanescente | 75 | 1006 |
| 07/11 | 18:00 | RBaixa remanescente | 75 | 1006 |
| 07/11 | 15:00 | RBaixa remanescente | 70 | 1006 |
| 07/11 | 12:00 | RBaixa remanescente | 65 | 1006 |
| 07/11 | 09:00 | TSTempestade tropical | 65 | 1005 |
| 07/11 | 06:00 | TSTempestade tropical | 65 | 1004 |
| 07/11 | 03:00 | TSTempestade tropical | 65 | 1004 |
| 07/11 | 00:00 | TSTempestade tropical | 65 | 1003 |
| 06/11 | 21:00 | TSTempestade tropical | 65 | 1003 |
| 06/11 | 18:00 | TSTempestade tropical | 65 | 1002 |
| 06/11 | 15:00 | TSTempestade tropical | 70 | 1002 |
| 06/11 | 12:00 | TSTempestade tropical | 75 | 1001 |
| 06/11 | 09:00 | TSTempestade tropical | 80 | 1001 |
| 06/11 | 06:00 | TSTempestade tropical | 85 | 1000 |
| 06/11 | 03:00 | TSTempestade tropical | 85 | 1000 |
| 06/11 | 00:00 | TSTempestade tropical | 85 | 999 |
| 05/11 | 21:00 | TSTempestade tropical | 85 | 998 |
| 05/11 | 18:00 | TSTempestade tropical | 85 | 996 |
| 05/11 | 15:00 | TSTempestade tropical | 85 | 995 |
| 05/11 | 12:00 | TSTempestade tropical | 85 | 993 |
| 05/11 | 09:00 | TSTempestade tropical | 85 | 993 |
| 05/11 | 06:00 | TSTempestade tropical | 85 | 992 |
| 05/11 | 03:00 | TSTempestade tropical | 85 | 992 |
| 05/11 | 00:00 | TSTempestade tropical | 85 | 992 |
| 04/11 | 21:00 | TSTempestade tropical | 80 | 993 |
| 04/11 | 18:00 | TSTempestade tropical | 75 | 994 |
| 04/11 | 15:00 | TSTempestade tropical | 75 | 994 |
| 04/11 | 12:00 | TSTempestade tropical | 75 | 994 |
| 04/11 | 09:00 | TSTempestade tropical | 80 | 993 |
| 04/11 | 06:00 | TSTempestade tropical | 85 | 992 |
| 04/11 | 03:00 | TSTempestade tropical | 85 | 992 |
| 04/11 | 00:00 | TSTempestade tropical | 85 | 992 |
| 03/11 | 21:00 | TSTempestade tropical | 85 | 992 |
| 03/11 | 18:00 | TSTempestade tropical | 85 | 992 |
| 03/11 | 15:00 | TSTempestade tropical | 80 | 993 |
| 03/11 | 12:00 | TSTempestade tropical | 75 | 994 |
| 03/11 | 09:00 | TSTempestade tropical | 75 | 995 |
| 03/11 | 06:00 | TSTempestade tropical | 75 | 995 |
| 03/11 | 03:00 | TSTempestade tropical | 75 | 996 |
| 03/11 | 00:00 | TSTempestade tropical | 75 | 996 |
| 02/11 | 21:00 | TSTempestade tropical | 75 | 996 |
| 02/11 | 18:00 | TSTempestade tropical | 75 | 996 |
| 02/11 | 15:00 | TSTempestade tropical | 75 | 996 |
| 02/11 | 12:00 | TSTempestade tropical | 75 | 996 |
| 02/11 | 09:00 | TSTempestade tropical | 75 | 996 |
| 02/11 | 06:00 | TSTempestade tropical | 75 | 996 |
| 02/11 | 03:00 | TSTempestade tropical | 70 | 997 |
| 02/11 | 00:00 | TSTempestade tropical | 65 | 997 |
| 01/11 | 21:00 | TSTempestade tropical | 65 | 997 |
| 01/11 | 18:00 | TSTempestade tropical | 65 | 997 |
| 01/11 | 15:00 | TSTempestade tropical | 70 | 995 |
| 01/11 | 12:00 | TSTempestade tropical | 75 | 993 |
| 01/11 | 09:00 | SSTempestade subtropical | 75 | 992 |
| 01/11 | 06:00 | SSTempestade subtropical | 75 | 991 |
| 01/11 | 03:00 | SSTempestade subtropical | 80 | 990 |
| 01/11 | 00:00 | SSTempestade subtropical | 85 | 989 |
| 31/10 | 21:00 | SSTempestade subtropical | 90 | 987 |
| 31/10 | 18:00 | SSTempestade subtropical | 95 | 985 |
| 31/10 | 15:00 | SSTempestade subtropical | 95 | 984 |
| 31/10 | 12:00 | SSTempestade subtropical | 95 | 983 |
| 31/10 | 09:00 | SSTempestade subtropical | 95 | 984 |
| 31/10 | 06:00 | SSTempestade subtropical | 95 | 985 |
| 31/10 | 03:00 | SSTempestade subtropical | 90 | 986 |
| 31/10 | 00:00 | SSTempestade subtropical | 85 | 987 |
| 30/10 | 21:00 | SSTempestade subtropical | 80 | 988 |
| 30/10 | 18:00 | SSTempestade subtropical | 75 | 988 |
| 30/10 | 15:00 | SSTempestade subtropical | 75 | 987 |
| 30/10 | 12:00 | SSTempestade subtropical | 75 | 986 |
| 30/10 | 09:00 | EXCiclone extratropical | 75 | 985 |
| 30/10 | 06:00 | EXCiclone extratropical | 75 | 984 |
| 30/10 | 03:00 | EXCiclone extratropical | 80 | 983 |
| 30/10 | 00:00 | EXCiclone extratropical | 85 | 982 |
| 29/10 | 21:00 | EXCiclone extratropical | 85 | 982 |
| 29/10 | 18:00 | EXCiclone extratropical | 85 | 981 |
| 29/10 | 15:00 | EXCiclone extratropical | 85 | 981 |
| 29/10 | 12:00 | EXCiclone extratropical | 85 | 981 |
| 29/10 | 09:00 | EXCiclone extratropical | 85 | 982 |
| 29/10 | 06:00 | EXCiclone extratropical | 85 | 982 |
| 29/10 | 03:00 | EXCiclone extratropical | 85 | 982 |
| 29/10 | 00:00 | EXCiclone extratropical | 85 | 982 |
| 28/10 | 21:00 | EXCiclone extratropical | 85 | 982 |
| 28/10 | 18:00 | EXCiclone extratropical | 85 | 982 |
| 28/10 | 15:00 | EXCiclone extratropical | 85 | 982 |
| 28/10 | 12:00 | EXCiclone extratropical | 85 | 982 |
| 28/10 | 09:00 | EXCiclone extratropical | 85 | 982 |
| 28/10 | 06:00 | EXCiclone extratropical | 85 | 982 |
| 28/10 | 03:00 | EXCiclone extratropical | 85 | 982 |
| 28/10 | 00:00 | EXCiclone extratropical | 85 | 981 |
| 27/10 | 21:00 | EXCiclone extratropical | 90 | 981 |
| 27/10 | 18:00 | EXCiclone extratropical | 95 | 980 |
| 27/10 | 15:00 | EXCiclone extratropical | 100 | 978 |
| 27/10 | 12:00 | EXCiclone extratropical | 100 | 976 |
| 27/10 | 09:00 | EXCiclone extratropical | 105 | 975 |
| 27/10 | 06:00 | EXCiclone extratropical | 110 | 973 |
| 27/10 | 03:00 | EXCiclone extratropical | 110 | 976 |
| 27/10 | 00:00 | EXCiclone extratropical | 110 | 979 |
| 26/10 | 21:00 | EXCiclone extratropical | 105 | 982 |
| 26/10 | 18:00 | EXCiclone extratropical | 100 | 984 |
| 26/10 | 15:00 | EXCiclone extratropical | 100 | 988 |
| 26/10 | 12:00 | EXCiclone extratropical | 95 | 992 |
| 26/10 | 09:00 | EXCiclone extratropical | 90 | 994 |
| 26/10 | 06:00 | EXCiclone extratropical | 85 | 996 |
| 26/10 | 03:00 | EXCiclone extratropical | 85 | 999 |
| 26/10 | 00:00 | EXCiclone extratropical | 85 | 1002 |
| 25/10 | 21:00 | EXCiclone extratropical | 75 | 1004 |
| 25/10 | 18:00 | EXCiclone extratropical | 65 | 1006 |
Cronologia de localização
107 Registos de localizaçãoDesastres naturais próximos
Detalhes do evento
Ligações das fontes
Também pode encontrar estas ferramentas úteis
A localização, a extensão e o estado de cada evento podem ser atualizados em momentos diferentes consoante a fonte. Confirme decisões importantes junto das autoridades oficiais de emergência.
Os registos de eventos provêm da NASA EONET e são complementados por registos de deslizamentos de terra do USGS FDSN. As análises e previsões de tempestades podem utilizar a NOAA NHC ou o JTWC, com registos históricos ATCF da UCAR/NCAR quando disponíveis. As imagens de satélite provêm da NASA Worldview/GIBS (GOES e Himawari) ou da EUMETSAT Meteosat, consoante a cobertura do mapa.
Fontes: NASA EONET · USGS · NOAA NHC · JTWC · UCAR/NCAR ATCF · NASA Worldview/GIBS · EUMETSAT Meteosat · OpenStreetMap contributors